sensor_id;sensor_type;location;lat;lon;timestamp;P1;durP1;ratioP1;P2;durP2;ratioP2
16440;SDS011;8330;-33.858;151.184;2023-03-14T00:00:34;11.55;;;2.08;;
16440;SDS011;8330;-33.858;151.184;2023-03-14T00:03:05;7.00;;;1.80;;
16440;SDS011;8330;-33.858;151.184;2023-03-14T00:05:41;9.88;;;2.13;;
16440;SDS011;8330;-33.858;151.184;2023-03-14T00:08:12;9.10;;;2.30;;
16440;SDS011;8330;-33.858;151.184;2023-03-14T00:10:46;7.35;;;2.00;;
16440;SDS011;8330;-33.858;151.184;2023-03-14T00:13:17;10.48;;;2.38;;
16440;SDS011;8330;-33.858;151.184;2023-03-14T00:15:49;8.23;;;1.58;;
16440;SDS011;8330;-33.858;151.184;2023-03-14T00:18:20;8.27;;;1.65;;
16440;SDS011;8330;-33.858;151.184;2023-03-14T00:20:53;4.78;;;1.35;;
16440;SDS011;8330;-33.858;151.184;2023-03-14T00:23:31;9.73;;;2.10;;
16440;SDS011;8330;-33.858;151.184;2023-03-14T00:26:04;9.10;;;1.90;;
16440;SDS011;8330;-33.858;151.184;2023-03-14T00:28:37;8.15;;;1.90;;
16440;SDS011;8330;-33.858;151.184;2023-03-14T00:31:09;6.93;;;1.90;;
16440;SDS011;8330;-33.858;151.184;2023-03-14T00:33:41;5.60;;;1.92;;
16440;SDS011;8330;-33.858;151.184;2023-03-14T00:36:15;8.25;;;2.15;;
16440;SDS011;8330;-33.858;151.184;2023-03-14T00:38:47;7.15;;;2.05;;
16440;SDS011;8330;-33.858;151.184;2023-03-14T00:41:19;11.13;;;1.95;;
16440;SDS011;8330;-33.858;151.184;2023-03-14T00:43:52;8.63;;;1.90;;
16440;SDS011;8330;-33.858;151.184;2023-03-14T00:46:23;12.07;;;2.83;;
16440;SDS011;8330;-33.858;151.184;2023-03-14T00:48:54;9.93;;;2.22;;
16440;SDS011;8330;-33.858;151.184;2023-03-14T00:51:27;15.32;;;2.80;;
16440;SDS011;8330;-33.858;151.184;2023-03-14T00:53:59;10.98;;;2.40;;
16440;SDS011;8330;-33.858;151.184;2023-03-14T00:56:34;14.52;;;2.95;;
16440;SDS011;8330;-33.858;151.184;2023-03-14T00:59:05;11.70;;;2.80;;
16440;SDS011;8330;-33.858;151.184;2023-03-14T01:01:37;14.52;;;2.88;;
16440;SDS011;8330;-33.858;151.184;2023-03-14T01:04:09;8.50;;;2.20;;
16440;SDS011;8330;-33.858;151.184;2023-03-14T01:06:42;11.98;;;2.70;;
16440;SDS011;8330;-33.858;151.184;2023-03-14T01:09:14;9.55;;;2.28;;
16440;SDS011;8330;-33.858;151.184;2023-03-14T01:11:45;12.60;;;2.53;;
16440;SDS011;8330;-33.858;151.184;2023-03-14T01:14:16;8.18;;;2.08;;
16440;SDS011;8330;-33.858;151.184;2023-03-14T01:16:47;9.60;;;2.28;;
16440;SDS011;8330;-33.858;151.184;2023-03-14T01:19:18;7.53;;;2.20;;
16440;SDS011;8330;-33.858;151.184;2023-03-14T01:21:51;10.32;;;2.20;;
16440;SDS011;8330;-33.858;151.184;2023-03-14T01:24:22;9.45;;;2.33;;
16440;SDS011;8330;-33.858;151.184;2023-03-14T01:26:53;10.50;;;2.42;;
16440;SDS011;8330;-33.858;151.184;2023-03-14T01:29:24;10.27;;;2.45;;
16440;SDS011;8330;-33.858;151.184;2023-03-14T01:31:59;11.45;;;2.85;;
16440;SDS011;8330;-33.858;151.184;2023-03-14T01:34:30;11.65;;;2.38;;
16440;SDS011;8330;-33.858;151.184;2023-03-14T01:37:02;13.40;;;2.45;;
16440;SDS011;8330;-33.858;151.184;2023-03-14T01:39:34;8.00;;;1.90;;
16440;SDS011;8330;-33.858;151.184;2023-03-14T01:42:05;11.75;;;2.63;;
16440;SDS011;8330;-33.858;151.184;2023-03-14T01:44:49;8.65;;;2.03;;
16440;SDS011;8330;-33.858;151.184;2023-03-14T01:47:21;10.20;;;2.42;;
16440;SDS011;8330;-33.858;151.184;2023-03-14T01:49:53;9.35;;;1.90;;
16440;SDS011;8330;-33.858;151.184;2023-03-14T01:52:34;9.90;;;1.90;;
16440;SDS011;8330;-33.858;151.184;2023-03-14T01:55:09;11.10;;;2.10;;
16440;SDS011;8330;-33.858;151.184;2023-03-14T01:57:42;8.93;;;2.05;;
16440;SDS011;8330;-33.858;151.184;2023-03-14T02:00:17;6.95;;;2.10;;
16440;SDS011;8330;-33.858;151.184;2023-03-14T02:02:50;10.65;;;2.17;;
16440;SDS011;8330;-33.858;151.184;2023-03-14T02:05:25;8.18;;;2.00;;
16440;SDS011;8330;-33.858;151.184;2023-03-14T02:08:01;11.35;;;2.17;;
16440;SDS011;8330;-33.858;151.184;2023-03-14T02:10:35;6.75;;;2.20;;
16440;SDS011;8330;-33.858;151.184;2023-03-14T02:13:10;10.00;;;2.42;;
16440;SDS011;8330;-33.858;151.184;2023-03-14T02:15:41;8.68;;;2.30;;
16440;SDS011;8330;-33.858;151.184;2023-03-14T02:18:16;6.93;;;2.28;;
16440;SDS011;8330;-33.858;151.184;2023-03-14T02:20:48;9.85;;;2.40;;
16440;SDS011;8330;-33.858;151.184;2023-03-14T02:23:29;8.95;;;2.45;;
16440;SDS011;8330;-33.858;151.184;2023-03-14T02:26:08;7.07;;;2.03;;
16440;SDS011;8330;-33.858;151.184;2023-03-14T02:28:44;9.52;;;2.63;;
16440;SDS011;8330;-33.858;151.184;2023-03-14T02:31:16;10.98;;;2.60;;
16440;SDS011;8330;-33.858;151.184;2023-03-14T02:33:47;9.02;;;2.20;;
16440;SDS011;8330;-33.858;151.184;2023-03-14T02:36:18;8.25;;;2.08;;
16440;SDS011;8330;-33.858;151.184;2023-03-14T02:38:51;8.98;;;2.50;;
16440;SDS011;8330;-33.858;151.184;2023-03-14T02:41:28;11.23;;;2.20;;
16440;SDS011;8330;-33.858;151.184;2023-03-14T02:44:02;9.52;;;2.25;;
16440;SDS011;8330;-33.858;151.184;2023-03-14T02:46:33;12.63;;;2.60;;
16440;SDS011;8330;-33.858;151.184;2023-03-14T02:49:04;9.25;;;2.40;;
16440;SDS011;8330;-33.858;151.184;2023-03-14T02:51:39;9.35;;;2.47;;
16440;SDS011;8330;-33.858;151.184;2023-03-14T02:54:13;7.68;;;2.30;;
16440;SDS011;8330;-33.858;151.184;2023-03-14T02:56:45;10.75;;;2.20;;
16440;SDS011;8330;-33.858;151.184;2023-03-14T02:59:18;11.38;;;2.67;;
16440;SDS011;8330;-33.858;151.184;2023-03-14T03:01:52;7.03;;;2.03;;
16440;SDS011;8330;-33.858;151.184;2023-03-14T03:04:23;8.02;;;2.22;;
16440;SDS011;8330;-33.858;151.184;2023-03-14T03:06:54;9.45;;;2.42;;
16440;SDS011;8330;-33.858;151.184;2023-03-14T03:09:27;9.35;;;2.58;;
16440;SDS011;8330;-33.858;151.184;2023-03-14T03:11:59;8.73;;;2.80;;
16440;SDS011;8330;-33.858;151.184;2023-03-14T03:14:32;6.82;;;2.03;;
16440;SDS011;8330;-33.858;151.184;2023-03-14T03:17:06;10.60;;;1.92;;
16440;SDS011;8330;-33.858;151.184;2023-03-14T03:19:37;9.55;;;2.40;;
16440;SDS011;8330;-33.858;151.184;2023-03-14T03:22:08;13.73;;;2.92;;
16440;SDS011;8330;-33.858;151.184;2023-03-14T03:24:39;7.00;;;2.25;;
16440;SDS011;8330;-33.858;151.184;2023-03-14T03:27:11;6.38;;;2.10;;
16440;SDS011;8330;-33.858;151.184;2023-03-14T03:29:46;7.00;;;1.92;;
16440;SDS011;8330;-33.858;151.184;2023-03-14T03:32:17;8.13;;;2.10;;
16440;SDS011;8330;-33.858;151.184;2023-03-14T03:34:50;7.25;;;2.15;;
16440;SDS011;8330;-33.858;151.184;2023-03-14T03:37:22;6.10;;;1.70;;
16440;SDS011;8330;-33.858;151.184;2023-03-14T03:39:55;7.85;;;2.10;;
16440;SDS011;8330;-33.858;151.184;2023-03-14T03:42:27;5.78;;;1.83;;
16440;SDS011;8330;-33.858;151.184;2023-03-14T03:45:00;8.77;;;1.95;;
16440;SDS011;8330;-33.858;151.184;2023-03-14T03:47:35;9.10;;;2.30;;
16440;SDS011;8330;-33.858;151.184;2023-03-14T03:50:06;5.30;;;1.85;;
16440;SDS011;8330;-33.858;151.184;2023-03-14T03:52:38;6.63;;;1.70;;
16440;SDS011;8330;-33.858;151.184;2023-03-14T03:55:12;4.65;;;1.73;;
16440;SDS011;8330;-33.858;151.184;2023-03-14T03:57:43;8.15;;;2.00;;
16440;SDS011;8330;-33.858;151.184;2023-03-14T04:00:16;5.18;;;1.80;;
16440;SDS011;8330;-33.858;151.184;2023-03-14T04:02:48;7.32;;;1.88;;
16440;SDS011;8330;-33.858;151.184;2023-03-14T04:05:22;6.40;;;1.90;;
16440;SDS011;8330;-33.858;151.184;2023-03-14T04:07:53;6.10;;;1.80;;
16440;SDS011;8330;-33.858;151.184;2023-03-14T04:10:24;4.63;;;1.65;;
16440;SDS011;8330;-33.858;151.184;2023-03-14T04:12:55;4.85;;;1.80;;
16440;SDS011;8330;-33.858;151.184;2023-03-14T04:15:28;9.23;;;2.00;;
16440;SDS011;8330;-33.858;151.184;2023-03-14T04:17:59;4.72;;;1.80;;
16440;SDS011;8330;-33.858;151.184;2023-03-14T04:20:34;5.63;;;1.73;;
16440;SDS011;8330;-33.858;151.184;2023-03-14T04:23:05;5.45;;;2.00;;
16440;SDS011;8330;-33.858;151.184;2023-03-14T04:25:42;4.78;;;1.63;;
16440;SDS011;8330;-33.858;151.184;2023-03-14T04:28:13;6.50;;;1.77;;
16440;SDS011;8330;-33.858;151.184;2023-03-14T04:30:49;7.10;;;1.80;;
16440;SDS011;8330;-33.858;151.184;2023-03-14T04:33:23;6.07;;;2.08;;
16440;SDS011;8330;-33.858;151.184;2023-03-14T04:35:54;7.13;;;1.90;;
16440;SDS011;8330;-33.858;151.184;2023-03-14T04:38:26;6.30;;;1.65;;
16440;SDS011;8330;-33.858;151.184;2023-03-14T04:41:01;5.50;;;2.10;;
16440;SDS011;8330;-33.858;151.184;2023-03-14T04:43:32;7.57;;;2.22;;
16440;SDS011;8330;-33.858;151.184;2023-03-14T04:46:05;8.40;;;1.95;;
16440;SDS011;8330;-33.858;151.184;2023-03-14T04:48:37;6.00;;;1.77;;
16440;SDS011;8330;-33.858;151.184;2023-03-14T04:51:08;6.50;;;2.30;;
16440;SDS011;8330;-33.858;151.184;2023-03-14T04:53:39;5.15;;;1.63;;
16440;SDS011;8330;-33.858;151.184;2023-03-14T04:56:10;9.93;;;2.22;;
16440;SDS011;8330;-33.858;151.184;2023-03-14T04:58:44;7.57;;;1.80;;
16440;SDS011;8330;-33.858;151.184;2023-03-14T05:01:27;8.25;;;2.50;;
16440;SDS011;8330;-33.858;151.184;2023-03-14T05:04:00;10.43;;;2.33;;
16440;SDS011;8330;-33.858;151.184;2023-03-14T05:06:32;9.10;;;2.08;;
16440;SDS011;8330;-33.858;151.184;2023-03-14T05:09:03;11.35;;;2.80;;
16440;SDS011;8330;-33.858;151.184;2023-03-14T05:11:38;9.30;;;2.40;;
16440;SDS011;8330;-33.858;151.184;2023-03-14T05:14:09;8.70;;;2.30;;
16440;SDS011;8330;-33.858;151.184;2023-03-14T05:16:42;8.10;;;2.00;;
16440;SDS011;8330;-33.858;151.184;2023-03-14T05:19:13;9.88;;;2.85;;
16440;SDS011;8330;-33.858;151.184;2023-03-14T05:21:44;8.80;;;2.35;;
16440;SDS011;8330;-33.858;151.184;2023-03-14T05:24:16;9.45;;;2.30;;
16440;SDS011;8330;-33.858;151.184;2023-03-14T05:26:47;10.40;;;2.90;;
16440;SDS011;8330;-33.858;151.184;2023-03-14T05:29:18;11.40;;;2.80;;
16440;SDS011;8330;-33.858;151.184;2023-03-14T05:31:51;11.80;;;2.33;;
16440;SDS011;8330;-33.858;151.184;2023-03-14T05:34:23;10.52;;;2.88;;
16440;SDS011;8330;-33.858;151.184;2023-03-14T05:36:54;10.20;;;2.80;;
16440;SDS011;8330;-33.858;151.184;2023-03-14T05:39:25;14.50;;;3.08;;
16440;SDS011;8330;-33.858;151.184;2023-03-14T05:41:56;9.82;;;2.47;;
16440;SDS011;8330;-33.858;151.184;2023-03-14T05:44:27;11.05;;;2.70;;
16440;SDS011;8330;-33.858;151.184;2023-03-14T05:47:00;10.77;;;2.80;;
16440;SDS011;8330;-33.858;151.184;2023-03-14T05:49:31;8.10;;;2.42;;
16440;SDS011;8330;-33.858;151.184;2023-03-14T05:52:02;8.63;;;2.67;;
16440;SDS011;8330;-33.858;151.184;2023-03-14T05:54:35;7.47;;;2.20;;
16440;SDS011;8330;-33.858;151.184;2023-03-14T05:57:06;11.88;;;2.63;;
16440;SDS011;8330;-33.858;151.184;2023-03-14T05:59:37;9.15;;;2.30;;
16440;SDS011;8330;-33.858;151.184;2023-03-14T06:02:10;10.18;;;2.55;;
16440;SDS011;8330;-33.858;151.184;2023-03-14T06:04:42;11.82;;;2.60;;
16440;SDS011;8330;-33.858;151.184;2023-03-14T06:07:13;13.65;;;3.10;;
16440;SDS011;8330;-33.858;151.184;2023-03-14T06:09:44;7.65;;;2.60;;
16440;SDS011;8330;-33.858;151.184;2023-03-14T06:12:15;11.15;;;2.58;;
16440;SDS011;8330;-33.858;151.184;2023-03-14T06:14:46;8.93;;;2.03;;
16440;SDS011;8330;-33.858;151.184;2023-03-14T06:17:19;8.43;;;2.22;;
16440;SDS011;8330;-33.858;151.184;2023-03-14T06:19:50;8.38;;;2.08;;
16440;SDS011;8330;-33.858;151.184;2023-03-14T06:22:21;10.45;;;2.10;;
16440;SDS011;8330;-33.858;151.184;2023-03-14T06:24:52;10.40;;;2.42;;
16440;SDS011;8330;-33.858;151.184;2023-03-14T06:27:23;8.05;;;2.40;;
16440;SDS011;8330;-33.858;151.184;2023-03-14T06:29:54;12.18;;;2.70;;
16440;SDS011;8330;-33.858;151.184;2023-03-14T06:32:27;9.82;;;2.42;;
16440;SDS011;8330;-33.858;151.184;2023-03-14T06:34:58;11.00;;;2.65;;
16440;SDS011;8330;-33.858;151.184;2023-03-14T06:37:30;9.05;;;2.35;;
16440;SDS011;8330;-33.858;151.184;2023-03-14T06:40:01;10.75;;;2.90;;
16440;SDS011;8330;-33.858;151.184;2023-03-14T06:42:34;12.45;;;2.95;;
16440;SDS011;8330;-33.858;151.184;2023-03-14T06:45:05;12.45;;;3.13;;
16440;SDS011;8330;-33.858;151.184;2023-03-14T06:47:39;12.48;;;2.80;;
16440;SDS011;8330;-33.858;151.184;2023-03-14T06:50:10;10.40;;;2.60;;
16440;SDS011;8330;-33.858;151.184;2023-03-14T06:52:41;12.73;;;2.70;;
16440;SDS011;8330;-33.858;151.184;2023-03-14T06:55:14;10.65;;;2.65;;
16440;SDS011;8330;-33.858;151.184;2023-03-14T06:57:45;9.25;;;2.22;;
16440;SDS011;8330;-33.858;151.184;2023-03-14T07:00:16;10.05;;;2.40;;
16440;SDS011;8330;-33.858;151.184;2023-03-14T07:02:50;10.15;;;2.33;;
16440;SDS011;8330;-33.858;151.184;2023-03-14T07:05:21;8.27;;;2.28;;
16440;SDS011;8330;-33.858;151.184;2023-03-14T07:07:52;9.20;;;2.45;;
16440;SDS011;8330;-33.858;151.184;2023-03-14T07:10:23;10.48;;;2.45;;
16440;SDS011;8330;-33.858;151.184;2023-03-14T07:12:54;10.38;;;2.40;;
16440;SDS011;8330;-33.858;151.184;2023-03-14T07:15:25;10.48;;;2.63;;
16440;SDS011;8330;-33.858;151.184;2023-03-14T07:17:58;9.85;;;1.80;;
16440;SDS011;8330;-33.858;151.184;2023-03-14T07:20:29;5.60;;;1.67;;
16440;SDS011;8330;-33.858;151.184;2023-03-14T07:23:00;5.13;;;1.55;;
16440;SDS011;8330;-33.858;151.184;2023-03-14T07:25:33;5.32;;;1.50;;
16440;SDS011;8330;-33.858;151.184;2023-03-14T07:28:05;5.60;;;1.52;;
16440;SDS011;8330;-33.858;151.184;2023-03-14T07:30:38;7.10;;;1.67;;
16440;SDS011;8330;-33.858;151.184;2023-03-14T07:33:11;6.05;;;1.50;;
16440;SDS011;8330;-33.858;151.184;2023-03-14T07:35:42;3.40;;;1.10;;
16440;SDS011;8330;-33.858;151.184;2023-03-14T07:38:13;5.60;;;1.48;;
16440;SDS011;8330;-33.858;151.184;2023-03-14T07:40:45;4.82;;;1.48;;
16440;SDS011;8330;-33.858;151.184;2023-03-14T07:43:16;3.20;;;1.05;;
16440;SDS011;8330;-33.858;151.184;2023-03-14T07:45:53;6.25;;;1.38;;
16440;SDS011;8330;-33.858;151.184;2023-03-14T07:48:26;4.47;;;1.38;;
16440;SDS011;8330;-33.858;151.184;2023-03-14T07:50:58;3.80;;;1.05;;
16440;SDS011;8330;-33.858;151.184;2023-03-14T07:53:29;5.20;;;1.20;;
16440;SDS011;8330;-33.858;151.184;2023-03-14T07:56:00;4.25;;;1.17;;
16440;SDS011;8330;-33.858;151.184;2023-03-14T07:58:31;6.28;;;1.63;;
16440;SDS011;8330;-33.858;151.184;2023-03-14T08:01:03;5.93;;;2.20;;
16440;SDS011;8330;-33.858;151.184;2023-03-14T08:03:36;7.32;;;2.22;;
16440;SDS011;8330;-33.858;151.184;2023-03-14T08:06:07;5.40;;;2.08;;
16440;SDS011;8330;-33.858;151.184;2023-03-14T08:08:38;6.18;;;2.10;;
16440;SDS011;8330;-33.858;151.184;2023-03-14T08:11:12;8.85;;;3.10;;
16440;SDS011;8330;-33.858;151.184;2023-03-14T08:13:44;9.55;;;4.03;;
16440;SDS011;8330;-33.858;151.184;2023-03-14T08:16:16;8.63;;;2.70;;
16440;SDS011;8330;-33.858;151.184;2023-03-14T08:18:49;7.50;;;2.63;;
16440;SDS011;8330;-33.858;151.184;2023-03-14T08:21:20;7.80;;;2.42;;
16440;SDS011;8330;-33.858;151.184;2023-03-14T08:23:52;5.15;;;2.20;;
16440;SDS011;8330;-33.858;151.184;2023-03-14T08:26:23;5.15;;;2.13;;
16440;SDS011;8330;-33.858;151.184;2023-03-14T08:28:56;7.03;;;2.45;;
16440;SDS011;8330;-33.858;151.184;2023-03-14T08:31:27;7.10;;;2.50;;
16440;SDS011;8330;-33.858;151.184;2023-03-14T08:34:01;7.28;;;2.20;;
16440;SDS011;8330;-33.858;151.184;2023-03-14T08:36:32;12.35;;;4.18;;
16440;SDS011;8330;-33.858;151.184;2023-03-14T08:39:04;10.77;;;4.00;;
16440;SDS011;8330;-33.858;151.184;2023-03-14T08:41:35;13.18;;;4.53;;
16440;SDS011;8330;-33.858;151.184;2023-03-14T08:44:07;7.05;;;3.50;;
16440;SDS011;8330;-33.858;151.184;2023-03-14T08:46:39;9.85;;;3.60;;
16440;SDS011;8330;-33.858;151.184;2023-03-14T08:49:13;6.70;;;2.50;;
16440;SDS011;8330;-33.858;151.184;2023-03-14T08:51:44;7.57;;;2.60;;
16440;SDS011;8330;-33.858;151.184;2023-03-14T08:54:15;9.32;;;3.10;;
16440;SDS011;8330;-33.858;151.184;2023-03-14T08:56:47;8.23;;;3.60;;
16440;SDS011;8330;-33.858;151.184;2023-03-14T08:59:18;8.32;;;4.13;;
16440;SDS011;8330;-33.858;151.184;2023-03-14T09:01:49;8.15;;;3.67;;
16440;SDS011;8330;-33.858;151.184;2023-03-14T09:04:22;7.20;;;3.00;;
16440;SDS011;8330;-33.858;151.184;2023-03-14T09:06:53;5.45;;;2.65;;
16440;SDS011;8330;-33.858;151.184;2023-03-14T09:09:29;8.70;;;2.90;;
16440;SDS011;8330;-33.858;151.184;2023-03-14T09:12:01;9.07;;;3.05;;
16440;SDS011;8330;-33.858;151.184;2023-03-14T09:14:32;7.28;;;3.08;;
16440;SDS011;8330;-33.858;151.184;2023-03-14T09:17:04;5.55;;;2.85;;
16440;SDS011;8330;-33.858;151.184;2023-03-14T09:19:37;7.72;;;2.63;;
16440;SDS011;8330;-33.858;151.184;2023-03-14T09:22:11;4.80;;;2.65;;
16440;SDS011;8330;-33.858;151.184;2023-03-14T09:24:42;5.50;;;2.90;;
16440;SDS011;8330;-33.858;151.184;2023-03-14T09:27:17;8.57;;;2.20;;
16440;SDS011;8330;-33.858;151.184;2023-03-14T09:29:51;6.05;;;2.30;;
16440;SDS011;8330;-33.858;151.184;2023-03-14T09:32:25;5.05;;;2.38;;
16440;SDS011;8330;-33.858;151.184;2023-03-14T09:35:00;5.30;;;2.10;;
16440;SDS011;8330;-33.858;151.184;2023-03-14T09:37:39;4.97;;;2.03;;
16440;SDS011;8330;-33.858;151.184;2023-03-14T09:40:17;5.65;;;2.35;;
16440;SDS011;8330;-33.858;151.184;2023-03-14T09:42:52;5.75;;;2.13;;
16440;SDS011;8330;-33.858;151.184;2023-03-14T09:45:28;3.97;;;2.15;;
16440;SDS011;8330;-33.858;151.184;2023-03-14T09:48:03;5.68;;;2.28;;
16440;SDS011;8330;-33.858;151.184;2023-03-14T09:50:39;7.32;;;2.25;;
16440;SDS011;8330;-33.858;151.184;2023-03-14T09:53:12;7.07;;;2.08;;
16440;SDS011;8330;-33.858;151.184;2023-03-14T09:55:47;7.47;;;2.42;;
16440;SDS011;8330;-33.858;151.184;2023-03-14T09:58:20;7.63;;;2.75;;
16440;SDS011;8330;-33.858;151.184;2023-03-14T10:00:52;5.93;;;2.10;;
16440;SDS011;8330;-33.858;151.184;2023-03-14T10:03:31;9.10;;;2.13;;
16440;SDS011;8330;-33.858;151.184;2023-03-14T10:06:08;9.15;;;2.35;;
16440;SDS011;8330;-33.858;151.184;2023-03-14T10:08:41;7.13;;;1.98;;
16440;SDS011;8330;-33.858;151.184;2023-03-14T10:11:13;4.97;;;1.90;;
16440;SDS011;8330;-33.858;151.184;2023-03-14T10:13:50;7.03;;;2.40;;
16440;SDS011;8330;-33.858;151.184;2023-03-14T10:16:33;8.00;;;2.50;;
16440;SDS011;8330;-33.858;151.184;2023-03-14T10:19:05;9.68;;;2.80;;
16440;SDS011;8330;-33.858;151.184;2023-03-14T10:21:41;10.20;;;3.10;;
16440;SDS011;8330;-33.858;151.184;2023-03-14T10:24:19;8.43;;;2.65;;
16440;SDS011;8330;-33.858;151.184;2023-03-14T10:26:52;7.63;;;3.00;;
16440;SDS011;8330;-33.858;151.184;2023-03-14T10:29:28;5.45;;;2.28;;
16440;SDS011;8330;-33.858;151.184;2023-03-14T10:32:00;8.07;;;2.58;;
16440;SDS011;8330;-33.858;151.184;2023-03-14T10:34:34;6.75;;;2.22;;
16440;SDS011;8330;-33.858;151.184;2023-03-14T10:37:14;5.97;;;2.58;;
16440;SDS011;8330;-33.858;151.184;2023-03-14T10:39:52;6.72;;;2.40;;
16440;SDS011;8330;-33.858;151.184;2023-03-14T10:42:25;5.10;;;2.20;;
16440;SDS011;8330;-33.858;151.184;2023-03-14T10:44:58;6.32;;;2.22;;
16440;SDS011;8330;-33.858;151.184;2023-03-14T10:47:31;7.57;;;2.60;;
16440;SDS011;8330;-33.858;151.184;2023-03-14T10:50:22;6.35;;;2.25;;
16440;SDS011;8330;-33.858;151.184;2023-03-14T10:52:59;5.32;;;2.08;;
16440;SDS011;8330;-33.858;151.184;2023-03-14T10:55:42;6.00;;;2.10;;
16440;SDS011;8330;-33.858;151.184;2023-03-14T10:58:21;6.05;;;2.53;;
16440;SDS011;8330;-33.858;151.184;2023-03-14T11:01:05;6.32;;;2.30;;
16440;SDS011;8330;-33.858;151.184;2023-03-14T11:03:56;6.07;;;2.28;;
16440;SDS011;8330;-33.858;151.184;2023-03-14T11:06:32;6.95;;;2.08;;
16440;SDS011;8330;-33.858;151.184;2023-03-14T11:09:14;7.60;;;2.50;;
16440;SDS011;8330;-33.858;151.184;2023-03-14T11:11:50;7.97;;;2.85;;
16440;SDS011;8330;-33.858;151.184;2023-03-14T11:14:26;6.95;;;2.55;;
16440;SDS011;8330;-33.858;151.184;2023-03-14T11:17:05;8.27;;;2.28;;
16440;SDS011;8330;-33.858;151.184;2023-03-14T11:22:36;8.80;;;2.95;;
16440;SDS011;8330;-33.858;151.184;2023-03-14T11:25:18;10.20;;;2.78;;
16440;SDS011;8330;-33.858;151.184;2023-03-14T11:27:55;7.50;;;2.60;;
16440;SDS011;8330;-33.858;151.184;2023-03-14T11:33:31;6.60;;;2.70;;
16440;SDS011;8330;-33.858;151.184;2023-03-14T11:36:07;7.10;;;2.45;;
16440;SDS011;8330;-33.858;151.184;2023-03-14T11:38:49;6.30;;;2.55;;
16440;SDS011;8330;-33.858;151.184;2023-03-14T11:41:27;6.72;;;2.35;;
16440;SDS011;8330;-33.858;151.184;2023-03-14T11:44:09;7.82;;;2.60;;
16440;SDS011;8330;-33.858;151.184;2023-03-14T11:46:50;5.75;;;2.38;;
16440;SDS011;8330;-33.858;151.184;2023-03-14T11:49:26;7.50;;;2.63;;
16440;SDS011;8330;-33.858;151.184;2023-03-14T11:52:09;6.88;;;2.30;;
16440;SDS011;8330;-33.858;151.184;2023-03-14T11:54:48;5.00;;;2.40;;
16440;SDS011;8330;-33.858;151.184;2023-03-14T11:57:28;6.70;;;2.50;;
16440;SDS011;8330;-33.858;151.184;2023-03-14T12:00:02;6.55;;;2.33;;
16440;SDS011;8330;-33.858;151.184;2023-03-14T12:02:44;5.72;;;2.28;;
16440;SDS011;8330;-33.858;151.184;2023-03-14T12:05:24;7.88;;;2.50;;
16440;SDS011;8330;-33.858;151.184;2023-03-14T12:08:21;5.10;;;2.17;;
16440;SDS011;8330;-33.858;151.184;2023-03-14T12:11:14;7.10;;;2.65;;
16440;SDS011;8330;-33.858;151.184;2023-03-14T12:13:56;8.85;;;2.45;;
16440;SDS011;8330;-33.858;151.184;2023-03-14T12:16:32;6.85;;;2.30;;
16440;SDS011;8330;-33.858;151.184;2023-03-14T12:22:01;5.68;;;2.10;;
16440;SDS011;8330;-33.858;151.184;2023-03-14T12:24:51;7.85;;;2.20;;
16440;SDS011;8330;-33.858;151.184;2023-03-14T12:30:25;8.38;;;2.70;;
16440;SDS011;8330;-33.858;151.184;2023-03-14T12:35:50;7.97;;;2.58;;
16440;SDS011;8330;-33.858;151.184;2023-03-14T12:38:23;6.05;;;2.38;;
16440;SDS011;8330;-33.858;151.184;2023-03-14T12:41:00;7.70;;;2.50;;
16440;SDS011;8330;-33.858;151.184;2023-03-14T12:43:41;5.82;;;2.47;;
16440;SDS011;8330;-33.858;151.184;2023-03-14T12:46:18;7.97;;;2.20;;
16440;SDS011;8330;-33.858;151.184;2023-03-14T12:48:55;8.50;;;2.38;;
16440;SDS011;8330;-33.858;151.184;2023-03-14T12:51:35;6.65;;;2.33;;
16440;SDS011;8330;-33.858;151.184;2023-03-14T12:54:09;5.43;;;2.17;;
16440;SDS011;8330;-33.858;151.184;2023-03-14T12:59:57;6.43;;;2.08;;
16440;SDS011;8330;-33.858;151.184;2023-03-14T13:02:37;6.65;;;2.20;;
16440;SDS011;8330;-33.858;151.184;2023-03-14T13:05:11;6.38;;;2.38;;
16440;SDS011;8330;-33.858;151.184;2023-03-14T13:08:05;6.45;;;2.08;;
16440;SDS011;8330;-33.858;151.184;2023-03-14T13:10:42;6.70;;;2.22;;
16440;SDS011;8330;-33.858;151.184;2023-03-14T13:13:26;8.95;;;2.58;;
16440;SDS011;8330;-33.858;151.184;2023-03-14T13:16:12;7.70;;;2.17;;
16440;SDS011;8330;-33.858;151.184;2023-03-14T13:18:48;6.60;;;2.10;;
16440;SDS011;8330;-33.858;151.184;2023-03-14T13:21:27;6.70;;;2.15;;
16440;SDS011;8330;-33.858;151.184;2023-03-14T13:24:06;5.30;;;1.83;;
16440;SDS011;8330;-33.858;151.184;2023-03-14T13:26:49;5.57;;;2.03;;
16440;SDS011;8330;-33.858;151.184;2023-03-14T13:29:25;5.68;;;2.05;;
16440;SDS011;8330;-33.858;151.184;2023-03-14T13:31:58;4.03;;;1.73;;
16440;SDS011;8330;-33.858;151.184;2023-03-14T13:34:33;3.83;;;1.85;;
16440;SDS011;8330;-33.858;151.184;2023-03-14T13:37:04;7.03;;;2.00;;
16440;SDS011;8330;-33.858;151.184;2023-03-14T13:39:43;6.72;;;1.95;;
16440;SDS011;8330;-33.858;151.184;2023-03-14T13:42:19;5.35;;;2.03;;
16440;SDS011;8330;-33.858;151.184;2023-03-14T13:44:53;3.42;;;1.88;;
16440;SDS011;8330;-33.858;151.184;2023-03-14T13:47:25;4.68;;;1.88;;
16440;SDS011;8330;-33.858;151.184;2023-03-14T13:49:58;4.30;;;1.73;;
16440;SDS011;8330;-33.858;151.184;2023-03-14T13:52:30;4.00;;;1.80;;
16440;SDS011;8330;-33.858;151.184;2023-03-14T13:55:05;4.90;;;1.80;;
16440;SDS011;8330;-33.858;151.184;2023-03-14T13:57:44;4.43;;;1.52;;
16440;SDS011;8330;-33.858;151.184;2023-03-14T14:00:18;4.72;;;1.80;;
16440;SDS011;8330;-33.858;151.184;2023-03-14T14:02:53;7.35;;;1.83;;
16440;SDS011;8330;-33.858;151.184;2023-03-14T14:05:27;6.07;;;2.00;;
16440;SDS011;8330;-33.858;151.184;2023-03-14T14:08:00;5.50;;;1.88;;
16440;SDS011;8330;-33.858;151.184;2023-03-14T14:10:33;3.08;;;1.75;;
16440;SDS011;8330;-33.858;151.184;2023-03-14T14:13:10;6.25;;;2.25;;
16440;SDS011;8330;-33.858;151.184;2023-03-14T14:15:45;4.72;;;1.60;;
16440;SDS011;8330;-33.858;151.184;2023-03-14T14:18:18;7.82;;;2.20;;
16440;SDS011;8330;-33.858;151.184;2023-03-14T14:20:57;5.13;;;2.00;;
16440;SDS011;8330;-33.858;151.184;2023-03-14T14:23:29;5.22;;;1.73;;
16440;SDS011;8330;-33.858;151.184;2023-03-14T14:26:00;4.63;;;1.65;;
16440;SDS011;8330;-33.858;151.184;2023-03-14T14:28:34;5.45;;;2.00;;
16440;SDS011;8330;-33.858;151.184;2023-03-14T14:31:17;6.25;;;1.92;;
16440;SDS011;8330;-33.858;151.184;2023-03-14T14:33:56;4.88;;;1.80;;
16440;SDS011;8330;-33.858;151.184;2023-03-14T14:36:31;4.30;;;1.80;;
16440;SDS011;8330;-33.858;151.184;2023-03-14T14:39:11;3.95;;;1.67;;
16440;SDS011;8330;-33.858;151.184;2023-03-14T14:41:49;3.10;;;1.50;;
16440;SDS011;8330;-33.858;151.184;2023-03-14T14:44:22;6.32;;;2.13;;
16440;SDS011;8330;-33.858;151.184;2023-03-14T14:46:57;6.15;;;2.03;;
16440;SDS011;8330;-33.858;151.184;2023-03-14T14:49:31;4.10;;;1.75;;
16440;SDS011;8330;-33.858;151.184;2023-03-14T14:52:08;5.38;;;1.83;;
16440;SDS011;8330;-33.858;151.184;2023-03-14T14:54:45;5.10;;;1.75;;
16440;SDS011;8330;-33.858;151.184;2023-03-14T14:57:18;4.43;;;1.90;;
16440;SDS011;8330;-33.858;151.184;2023-03-14T14:59:50;4.63;;;2.05;;
16440;SDS011;8330;-33.858;151.184;2023-03-14T15:02:30;4.85;;;1.88;;
16440;SDS011;8330;-33.858;151.184;2023-03-14T15:05:12;6.53;;;2.30;;
16440;SDS011;8330;-33.858;151.184;2023-03-14T15:07:46;5.63;;;2.30;;
16440;SDS011;8330;-33.858;151.184;2023-03-14T15:10:18;6.13;;;2.65;;
16440;SDS011;8330;-33.858;151.184;2023-03-14T15:12:50;7.30;;;3.10;;
16440;SDS011;8330;-33.858;151.184;2023-03-14T15:15:22;5.38;;;2.33;;